Time;durP1;ratioP1;P1;durP2;ratioP2;P2;SDS_P1;SDS_P2;PMS_P1;PMS_P2;Temp;Humidity;BMP_temperature;BMP_pressure;BME280_temperature;BME280_humidity;BME280_pressure;Samples;Min_cycle;Max_cycle;Signal;HPM_P1;HPM_P2
2021/12/27 00:02:00;;;;;;;13.05;5.13;;;;;;;-1.42;88.27;100642.63;5036866;28;20032;-55
2021/12/27 00:04:26;;;;;;;20.00;5.15;;;;;;;-1.41;87.33;100638.34;5044565;28;20040;-56
2021/12/27 00:06:51;;;;;;;19.08;4.53;;;;;;;-1.47;87.61;100643.31;5056611;28;20029;-52
2021/12/27 00:09:16;;;;;;;20.30;4.70;;;;;;;-1.63;88.05;100647.13;5041177;28;20091;-53
2021/12/27 00:11:43;;;;;;;62.25;5.95;;;;;;;-1.57;88.52;100637.00;5036789;28;20037;-53
2021/12/27 00:14:08;;;;;;;19.73;4.60;;;;;;;-1.57;87.48;100632.72;5036285;28;20029;-52
2021/12/27 00:16:33;;;;;;;51.63;5.35;;;;;;;-1.66;88.12;100631.56;5040784;28;20030;-52
2021/12/27 00:18:59;;;;;;;19.45;4.55;;;;;;;-1.59;88.07;100636.97;5036901;28;20420;-51
2021/12/27 00:21:24;;;;;;;50.03;8.68;;;;;;;-1.42;88.46;100636.59;5036680;28;20119;-52
2021/12/27 00:23:50;;;;;;;15.65;7.63;;;;;;;-1.28;87.93;100638.78;5055125;28;20361;-52
2021/12/27 00:26:15;;;;;;;19.35;7.88;;;;;;;-1.14;86.97;100643.47;5056179;28;20480;-54
2021/12/27 00:28:40;;;;;;;21.65;7.15;;;;;;;-1.20;86.02;100638.13;5054952;28;20048;-56
2021/12/27 00:31:06;;;;;;;43.78;6.57;;;;;;;-1.23;85.73;100646.66;5056037;28;20049;-54
2021/12/27 00:33:31;;;;;;;15.07;6.63;;;;;;;-1.30;86.54;100643.00;5055910;28;20124;-56
2021/12/27 00:35:57;;;;;;;34.15;4.28;;;;;;;-1.32;86.12;100649.81;5037497;28;20107;-52
2021/12/27 00:38:22;;;;;;;17.92;4.97;;;;;;;-1.28;86.83;100643.03;5036110;28;20026;-55
2021/12/27 00:40:48;;;;;;;11.60;4.43;;;;;;;-1.17;86.93;100648.53;5035869;28;20039;-54
2021/12/27 00:43:13;;;;;;;18.83;6.00;;;;;;;-1.08;86.46;100641.97;5044123;28;20029;-54
2021/12/27 00:45:39;;;;;;;19.67;5.53;;;;;;;-0.98;85.68;100642.22;5053649;28;20037;-52
2021/12/27 00:48:05;;;;;;;14.02;6.30;;;;;;;-1.07;84.84;100645.41;5018476;28;20041;-50
2021/12/27 00:50:30;;;;;;;15.43;5.10;;;;;;;-1.09;84.87;100647.91;5036307;28;20389;-53
2021/12/27 00:52:55;;;;;;;60.03;5.03;;;;;;;-1.38;84.89;100659.06;5048557;28;20124;-53
2021/12/27 00:55:21;;;;;;;60.35;4.68;;;;;;;-1.71;86.09;100654.59;5054375;28;20053;-53
2021/12/27 00:57:47;;;;;;;66.63;4.82;;;;;;;-1.89;87.63;100654.88;5050861;28;20029;-54
2021/12/27 01:00:15;;;;;;;38.70;4.65;;;;;;;-2.02;88.45;100650.16;5035534;28;20041;-52
2021/12/27 01:02:42;;;;;;;30.75;4.57;;;;;;;-1.91;88.75;100664.25;5035443;28;20056;-53
2021/12/27 01:05:09;;;;;;;51.40;5.38;;;;;;;-1.89;88.97;100648.84;5036457;28;20125;-53
2021/12/27 01:07:35;;;;;;;54.05;5.80;;;;;;;-1.82;88.53;100654.25;5035896;28;20037;-50
2021/12/27 01:17:41;;;;;;;26.15;4.35;;;;;;;-1.89;88.46;100654.88;5055417;28;20094;-51
2021/12/27 01:20:10;;;;;;;15.93;4.13;;;;;;;-1.74;87.85;100659.66;5055161;28;20037;-51
2021/12/27 01:22:36;;;;;;;7.80;4.43;;;;;;;-1.64;88.01;100663.38;5037096;28;20029;-53
2021/12/27 01:25:03;;;;;;;10.18;4.22;;;;;;;-1.73;85.83;100667.41;5034897;28;20044;-52
2021/12/27 01:27:29;;;;;;;11.57;4.45;;;;;;;-1.98;87.23;100663.16;5045504;28;20048;-52
2021/12/27 01:29:54;;;;;;;10.27;4.18;;;;;;;-2.06;88.18;100666.31;5054686;28;20029;-51
2021/12/27 01:32:21;;;;;;;17.42;4.55;;;;;;;-2.07;88.50;100672.31;5054798;28;20388;-51
2021/12/27 01:34:46;;;;;;;10.57;4.10;;;;;;;-2.10;88.30;100673.06;5054972;28;20087;-51
2021/12/27 01:37:12;;;;;;;12.63;4.47;;;;;;;-2.08;88.56;100678.25;5050955;28;20520;-53
2021/12/27 01:39:38;;;;;;;17.45;4.50;;;;;;;-2.06;88.73;100677.50;5044682;28;20048;-51
2021/12/27 01:42:03;;;;;;;9.90;3.38;;;;;;;-1.92;89.23;100683.09;5053558;28;20037;-52
2021/12/27 01:44:29;;;;;;;8.10;4.88;;;;;;;-1.70;87.99;100681.25;5043434;28;20120;-52
2021/12/27 01:46:54;;;;;;;9.40;5.35;;;;;;;-1.54;87.08;100679.19;5034794;28;20029;-52
2021/12/27 01:49:20;;;;;;;13.38;5.50;;;;;;;-1.40;86.20;100682.19;5039124;28;20043;-51
2021/12/27 01:51:45;;;;;;;17.75;5.72;;;;;;;-1.42;84.32;100678.72;5040306;28;20049;-52
2021/12/27 01:54:11;;;;;;;21.60;5.15;;;;;;;-1.44;84.06;100675.19;5033215;28;20041;-52
2021/12/27 01:56:37;;;;;;;11.07;4.88;;;;;;;-1.54;84.50;100678.34;5053187;28;20044;-52
2021/12/27 01:59:03;;;;;;;29.40;5.10;;;;;;;-1.77;85.00;100680.16;5054605;28;20033;-51
2021/12/27 02:01:29;;;;;;;27.27;4.45;;;;;;;-1.98;85.78;100685.47;5039799;28;20048;-52
2021/12/27 02:03:55;;;;;;;21.38;4.53;;;;;;;-2.10;86.98;100677.34;5033308;28;20033;-52
2021/12/27 02:06:22;;;;;;;15.48;3.78;;;;;;;-2.18;87.07;100689.94;5041605;28;20029;-55
2021/12/27 02:08:48;;;;;;;12.70;3.90;;;;;;;-2.24;87.26;100680.28;5054176;28;20112;-55
2021/12/27 02:11:15;;;;;;;16.77;4.30;;;;;;;-2.31;87.64;100680.06;5053836;28;20137;-53
2021/12/27 02:13:44;;;;;;;9.05;3.72;;;;;;;-2.28;88.66;100675.88;5047579;28;20072;-54
2021/12/27 02:16:11;;;;;;;12.48;4.10;;;;;;;-2.14;88.54;100684.09;5049531;28;20033;-51
2021/12/27 02:18:37;;;;;;;14.93;5.20;;;;;;;-1.98;87.73;100675.19;5053816;28;20476;-54
2021/12/27 02:21:04;;;;;;;11.00;4.07;;;;;;;-1.86;87.02;100678.16;5054153;28;20055;-54
2021/12/27 02:23:29;;;;;;;8.82;3.88;;;;;;;-1.68;86.16;100669.28;5039104;28;20111;-55
2021/12/27 02:25:55;;;;;;;9.98;4.18;;;;;;;-1.58;84.91;100661.91;5033295;28;20033;-54
2021/12/27 02:28:21;;;;;;;26.17;6.60;;;;;;;-1.57;84.11;100663.63;5044019;28;20086;-54
2021/12/27 02:30:50;;;;;;;36.95;4.35;;;;;;;-1.64;83.49;100656.53;5053828;28;20053;-52
2021/12/27 02:33:16;;;;;;;24.85;4.53;;;;;;;-1.64;83.70;100664.25;5053627;28;20472;-52
2021/12/27 02:35:47;;;;;;;26.05;4.32;;;;;;;-1.78;83.20;100653.53;5042464;28;20046;-54
2021/12/27 02:38:19;;;;;;;29.08;4.20;;;;;;;-1.89;83.64;100654.88;5037664;28;20055;-51
2021/12/27 02:40:45;;;;;;;50.87;5.27;;;;;;;-2.12;84.34;100658.38;5052515;28;20028;-54
2021/12/27 02:43:15;;;;;;;20.98;4.03;;;;;;;-2.36;85.34;100656.72;5052047;28;20029;-52
2021/12/27 02:45:52;;;;;;;47.83;5.93;;;;;;;-2.48;85.94;100664.00;5035918;28;20044;-55
2021/12/27 02:48:22;;;;;;;50.60;4.70;;;;;;;-2.57;87.11;100659.41;5045245;28;20465;-53
2021/12/27 02:50:48;;;;;;;15.88;3.42;;;;;;;-2.50;88.38;100658.81;5033815;28;20037;-55
2021/12/27 02:53:14;;;;;;;98.13;6.75;;;;;;;-2.48;87.45;100661.44;5033336;28;20025;-50
2021/12/27 02:55:41;;;;;;;20.10;4.88;;;;;;;-2.42;88.41;100656.50;5040521;28;20374;-52
2021/12/27 02:58:08;;;;;;;21.10;4.63;;;;;;;-2.28;88.10;100655.28;5042767;28;20037;-50
2021/12/27 03:00:37;;;;;;;23.05;5.13;;;;;;;-2.10;87.11;100659.31;5053400;28;20534;-50
2021/12/27 03:03:04;;;;;;;17.38;4.50;;;;;;;-2.01;86.27;100644.16;5053253;28;20399;-51
2021/12/27 03:05:30;;;;;;;5.95;3.53;;;;;;;-1.92;85.63;100648.75;5049482;28;20048;-51
2021/12/27 03:07:57;;;;;;;12.25;4.50;;;;;;;-1.84;84.29;100652.44;5034755;28;20044;-51
2021/12/27 03:10:25;;;;;;;15.55;4.50;;;;;;;-1.91;83.74;100645.38;5033822;28;20108;-53
2021/12/27 03:12:52;;;;;;;7.80;4.28;;;;;;;-1.81;84.09;100649.97;5033441;28;20041;-51
2021/12/27 03:15:20;;;;;;;10.90;5.32;;;;;;;-1.73;83.36;100641.66;5035000;28;20131;-51
2021/12/27 03:17:48;;;;;;;6.55;4.20;;;;;;;-1.68;82.63;100648.66;5049441;28;20033;-53
2021/12/27 03:20:15;;;;;;;10.68;6.00;;;;;;;-1.68;82.14;100644.38;5037726;28;20113;-52
2021/12/27 03:22:42;;;;;;;8.95;4.53;;;;;;;-1.63;82.13;100640.28;5039332;28;20476;-53
2021/12/27 03:25:11;;;;;;;10.02;4.53;;;;;;;-1.58;81.52;100642.97;5057358;28;20397;-51
2021/12/27 03:27:36;;;;;;;12.27;6.63;;;;;;;-1.52;80.61;100650.88;5057638;28;20029;-50
2021/12/27 03:30:06;;;;;;;12.20;6.50;;;;;;;-1.47;79.94;100653.63;5048490;28;20388;-50
2021/12/27 03:32:33;;;;;;;8.70;4.78;;;;;;;-1.46;79.24;100645.06;5037538;28;20076;-51
2021/12/27 03:35:08;;;;;;;10.93;5.57;;;;;;;-1.42;78.89;100654.66;5037441;28;20057;-50
2021/12/27 03:37:33;;;;;;;16.90;6.78;;;;;;;-1.41;78.68;100654.69;5037374;28;20527;-51
2021/12/27 03:39:58;;;;;;;16.23;6.40;;;;;;;-1.43;78.50;100651.19;5020532;28;20038;-51
2021/12/27 03:42:24;;;;;;;22.73;7.57;;;;;;;-1.44;78.23;100652.00;5057019;28;20111;-53
2021/12/27 03:44:49;;;;;;;15.70;6.90;;;;;;;-1.47;78.42;100648.47;5057037;28;20469;-51
2021/12/27 03:47:14;;;;;;;15.95;6.45;;;;;;;-1.49;78.16;100651.00;5055617;28;20037;-52
2021/12/27 03:49:40;;;;;;;11.80;5.82;;;;;;;-1.54;78.05;100657.72;5057258;28;20369;-55
2021/12/27 03:52:06;;;;;;;24.70;8.13;;;;;;;-1.65;78.20;100657.38;5041323;28;20091;-53
2021/12/27 03:54:31;;;;;;;24.02;7.10;;;;;;;-1.75;78.21;100658.78;5036807;28;20064;-53
2021/12/27 03:56:57;;;;;;;18.15;7.15;;;;;;;-1.84;78.41;100649.88;5037991;28;20033;-52
2021/12/27 03:59:35;;;;;;;11.20;6.45;;;;;;;-1.96;78.27;100658.06;5037717;28;20107;-52
2021/12/27 04:02:02;;;;;;;14.60;6.10;;;;;;;-1.96;78.85;100647.75;5036936;28;20034;-54
2021/12/27 04:04:27;;;;;;;15.18;6.35;;;;;;;-1.85;78.74;100655.84;5035518;28;20037;-55
2021/12/27 04:06:53;;;;;;;17.42;6.47;;;;;;;-1.83;78.17;100660.25;5051175;28;20495;-51
2021/12/27 04:09:19;;;;;;;17.13;6.93;;;;;;;-1.86;78.06;100660.13;5039914;28;20079;-52
2021/12/27 04:11:45;;;;;;;11.15;5.93;;;;;;;-1.92;77.84;100662.50;5036773;28;20499;-52
2021/12/27 04:14:10;;;;;;;17.30;5.85;;;;;;;-2.06;77.71;100661.16;5037236;28;20108;-54
2021/12/27 04:16:36;;;;;;;16.52;7.05;;;;;;;-2.09;77.61;100663.63;5055918;28;20036;-55
2021/12/27 04:19:01;;;;;;;14.93;7.55;;;;;;;-2.06;77.50;100668.91;5054748;28;20500;-55
2021/12/27 04:21:27;;;;;;;12.95;6.75;;;;;;;-1.99;77.19;100668.28;5056190;28;20061;-52
2021/12/27 04:23:52;;;;;;;13.55;8.07;;;;;;;-1.96;76.58;100654.63;5048347;28;20115;-52
2021/12/27 04:26:19;;;;;;;15.38;8.02;;;;;;;-2.04;75.94;100664.66;5036188;28;20101;-55
2021/12/27 04:28:45;;;;;;;18.83;8.27;;;;;;;-2.05;75.83;100671.50;5036774;28;20487;-54
2021/12/27 04:31:10;;;;;;;15.75;7.72;;;;;;;-2.10;75.50;100665.34;5044736;28;20053;-55
2021/12/27 04:33:35;;;;;;;16.02;8.95;;;;;;;-2.08;75.28;100678.25;5036267;28;20487;-54
2021/12/27 04:36:01;;;;;;;16.63;8.90;;;;;;;-2.11;74.97;100673.91;5036384;28;20048;-54
2021/12/27 04:38:26;;;;;;;15.48;8.52;;;;;;;-2.16;74.53;100682.25;5046772;28;20503;-52
2021/12/27 04:40:52;;;;;;;21.88;11.75;;;;;;;-2.29;74.02;100673.25;5055876;28;20057;-52
2021/12/27 04:43:20;;;;;;;22.23;10.20;;;;;;;-2.39;73.83;100681.50;5055969;28;20069;-52
2021/12/27 04:45:47;;;;;;;21.55;11.05;;;;;;;-2.44;74.42;100676.16;5055922;28;20036;-54
2021/12/27 04:48:13;;;;;;;21.23;10.65;;;;;;;-2.47;74.33;100678.63;5055738;28;20472;-52
2021/12/27 04:50:39;;;;;;;19.30;10.05;;;;;;;-2.51;74.59;100671.63;5050400;28;20081;-51
2021/12/27 04:53:08;;;;;;;26.98;13.73;;;;;;;-2.53;74.56;100668.13;5050463;28;20067;-52
2021/12/27 04:55:34;;;;;;;18.67;9.48;;;;;;;-2.57;74.57;100668.81;5055648;28;20468;-53
2021/12/27 04:58:00;;;;;;;21.33;10.35;;;;;;;-2.54;74.26;100671.53;5054572;28;20087;-59
2021/12/27 05:00:26;;;;;;;21.70;9.93;;;;;;;-2.57;74.21;100676.53;5050564;28;20041;-52
2021/12/27 05:02:52;;;;;;;18.20;9.30;;;;;;;-2.54;74.14;100674.09;5035527;28;20103;-51
2021/12/27 05:05:18;;;;;;;21.20;11.15;;;;;;;-2.52;73.81;100673.31;5037383;28;20116;-52
2021/12/27 05:07:44;;;;;;;17.52;9.40;;;;;;;-2.58;73.28;100675.69;5055682;28;20060;-54
2021/12/27 05:10:11;;;;;;;18.52;9.10;;;;;;;-2.64;73.18;100674.56;5055537;28;20480;-54
2021/12/27 05:12:37;;;;;;;16.67;7.53;;;;;;;-2.68;72.86;100683.00;5050235;28;20040;-53
2021/12/27 05:15:04;;;;;;;13.00;7.10;;;;;;;-2.78;72.55;100674.94;5037158;28;20021;-55
2021/12/27 05:17:30;;;;;;;18.05;8.70;;;;;;;-2.81;72.72;100679.97;5037807;28;20029;-51
2021/12/27 05:19:56;;;;;;;16.50;7.95;;;;;;;-2.90;72.67;100671.94;5053969;28;20064;-52
2021/12/27 05:22:21;;;;;;;16.15;8.15;;;;;;;-2.89;72.23;100678.81;5044021;28;20068;-52
2021/12/27 05:24:47;;;;;;;14.75;7.85;;;;;;;-2.93;71.71;100682.09;5050458;28;20119;-54
2021/12/27 05:27:12;;;;;;;17.42;9.15;;;;;;;-2.99;71.58;100676.75;5055194;28;20037;-52
2021/12/27 05:29:38;;;;;;;21.20;11.73;;;;;;;-3.07;71.73;100676.44;5050225;28;20038;-54
2021/12/27 05:32:04;;;;;;;20.10;10.18;;;;;;;-3.18;71.78;100669.16;5034861;28;20053;-53
2021/12/27 05:34:29;;;;;;;16.98;8.95;;;;;;;-3.33;71.91;100666.84;5033775;28;20076;-53
2021/12/27 05:36:55;;;;;;;20.48;9.60;;;;;;;-3.51;71.66;100669.56;5041914;28;20061;-52
2021/12/27 05:39:22;;;;;;;23.15;10.77;;;;;;;-3.71;72.05;100676.47;5053438;28;20090;-54
2021/12/27 05:41:48;;;;;;;17.05;8.77;;;;;;;-3.95;72.53;100671.22;5050297;28;20050;-53
2021/12/27 05:44:14;;;;;;;20.08;11.07;;;;;;;-4.12;73.05;100682.47;5034857;28;20021;-54
2021/12/27 05:46:40;;;;;;;17.30;9.45;;;;;;;-4.40;73.64;100676.16;5033942;28;20465;-54
2021/12/27 05:49:06;;;;;;;18.00;9.27;;;;;;;-4.55;74.23;100671.28;5043159;28;20536;-54
2021/12/27 05:51:31;;;;;;;15.07;8.38;;;;;;;-4.68;74.31;100668.97;5054359;28;20037;-54
2021/12/27 05:53:57;;;;;;;15.55;8.60;;;;;;;-4.75;74.84;100665.28;5043648;28;20041;-51
2021/12/27 05:56:22;;;;;;;14.70;8.40;;;;;;;-4.89;74.46;100668.03;5033404;28;20104;-53
2021/12/27 05:58:47;;;;;;;15.27;7.95;;;;;;;-5.01;74.62;100674.34;5045221;28;20034;-54
2021/12/27 06:01:13;;;;;;;15.18;8.05;;;;;;;-5.09;75.14;100667.13;5034578;28;20099;-52
2021/12/27 06:03:38;;;;;;;16.20;8.35;;;;;;;-5.17;75.25;100665.91;5048197;28;20033;-52
2021/12/27 06:06:04;;;;;;;15.50;8.43;;;;;;;-5.28;75.27;100662.84;5054012;28;20033;-51
2021/12/27 06:08:29;;;;;;;14.13;7.78;;;;;;;-5.30;75.46;100667.91;5054111;28;20094;-54
2021/12/27 06:10:54;;;;;;;17.40;9.02;;;;;;;-5.37;75.27;100667.53;5053848;28;20435;-52
2021/12/27 06:13:20;;;;;;;19.77;9.70;;;;;;;-5.43;75.21;100672.34;5034055;28;20038;-53
2021/12/27 06:15:45;;;;;;;15.25;8.25;;;;;;;-5.46;75.47;100670.56;5034050;28;20044;-51
2021/12/27 06:18:11;;;;;;;20.02;9.90;;;;;;;-5.47;75.22;100666.22;5034257;28;20045;-53
2021/12/27 06:20:36;;;;;;;17.40;9.55;;;;;;;-5.59;74.95;100669.06;5033044;28;20120;-53
2021/12/27 06:23:02;;;;;;;17.95;9.10;;;;;;;-5.59;75.28;100665.63;5033969;28;20468;-51
2021/12/27 06:25:28;;;;;;;17.98;9.43;;;;;;;-5.60;75.62;100672.44;5034181;28;20044;-54
2021/12/27 06:27:54;;;;;;;21.20;10.55;;;;;;;-5.59;75.22;100681.88;5033846;28;20374;-54
2021/12/27 06:30:21;;;;;;;22.38;11.23;;;;;;;-5.65;74.85;100676.47;5041612;28;20465;-53
2021/12/27 06:32:47;;;;;;;22.05;11.90;;;;;;;-5.66;74.92;100684.06;5052714;28;20426;-53
2021/12/27 06:35:13;;;;;;;24.33;12.77;;;;;;;-5.70;74.78;100671.13;5052620;28;20472;-50
2021/12/27 06:37:41;;;;;;;32.55;17.58;;;;;;;-5.70;74.96;100668.56;5041420;28;20041;-51
2021/12/27 06:40:08;;;;;;;32.38;16.70;;;;;;;-5.81;74.25;100676.53;5034281;28;20025;-51
2021/12/27 06:42:33;;;;;;;32.25;15.27;;;;;;;-5.91;74.22;100667.53;5033785;28;20425;-50
2021/12/27 06:44:59;;;;;;;36.13;18.90;;;;;;;-5.96;74.05;100666.47;5033739;28;20026;-53
2021/12/27 06:47:26;;;;;;;30.25;16.13;;;;;;;-6.04;74.35;100666.06;5033569;28;20683;-51
2021/12/27 06:49:52;;;;;;;28.17;15.43;;;;;;;-6.10;74.44;100676.03;5033472;28;20547;-52
2021/12/27 06:52:18;;;;;;;27.50;15.63;;;;;;;-6.16;74.03;100683.38;5031996;28;20037;-51
2021/12/27 06:54:43;;;;;;;25.33;13.13;;;;;;;-6.20;74.03;100678.91;5033042;28;20084;-56
2021/12/27 06:57:09;;;;;;;24.90;13.13;;;;;;;-6.20;74.32;100678.91;5020673;28;20120;-53
2021/12/27 06:59:34;;;;;;;19.33;11.00;;;;;;;-6.37;73.81;100680.63;5038586;28;20033;-51
2021/12/27 07:01:59;;;;;;;22.83;12.48;;;;;;;-6.36;74.51;100676.38;5045954;28;20087;-53
2021/12/27 07:04:26;;;;;;;26.65;13.60;;;;;;;-6.51;73.76;100686.69;5034146;28;20507;-52
2021/12/27 07:06:52;;;;;;;25.45;14.50;;;;;;;-6.65;74.21;100682.56;5037761;28;20201;-51
2021/12/27 07:09:18;;;;;;;29.67;16.42;;;;;;;-6.78;74.27;100694.72;5053347;28;20033;-53
2021/12/27 07:11:43;;;;;;;33.15;18.00;;;;;;;-6.91;74.76;100694.84;5049775;28;20107;-53
2021/12/27 07:14:09;;;;;;;32.38;17.75;;;;;;;-7.02;74.67;100703.59;5035336;28;20034;-53
2021/12/27 07:16:34;;;;;;;32.47;17.52;;;;;;;-7.15;74.67;100696.97;5050944;28;20508;-52
2021/12/27 07:18:59;;;;;;;38.75;19.60;;;;;;;-7.15;75.64;100704.63;5043139;28;20114;-53
2021/12/27 07:21:25;;;;;;;29.90;15.80;;;;;;;-7.12;75.35;100706.47;5044357;28;20378;-51
2021/12/27 07:23:51;;;;;;;38.03;21.05;;;;;;;-7.06;75.03;100702.59;5051597;28;20048;-50
2021/12/27 07:26:16;;;;;;;30.55;16.15;;;;;;;-7.03;74.59;100705.28;5044499;28;20597;-54
2021/12/27 07:28:41;;;;;;;40.70;20.45;;;;;;;-6.90;74.68;100699.19;5048174;28;20412;-52
2021/12/27 07:31:07;;;;;;;36.67;20.25;;;;;;;-6.83;73.94;100697.81;5052555;28;20041;-52
2021/12/27 07:33:33;;;;;;;37.97;19.33;;;;;;;-6.71;74.23;100704.44;5039620;28;20437;-56
2021/12/27 07:35:59;;;;;;;36.60;18.15;;;;;;;-6.57;73.71;100711.97;5049602;28;20116;-51
2021/12/27 07:38:25;;;;;;;38.17;20.58;;;;;;;-6.46;72.97;100705.75;5050885;28;20051;-51
2021/12/27 07:40:50;;;;;;;38.70;20.17;;;;;;;-6.43;72.47;100710.97;5048006;28;20102;-55
2021/12/27 07:43:16;;;;;;;38.90;21.20;;;;;;;-6.32;72.13;100717.53;5038123;28;20033;-54
2021/12/27 07:45:41;;;;;;;36.53;19.65;;;;;;;-6.26;71.68;100714.44;5046660;28;20038;-54
2021/12/27 07:48:07;;;;;;;35.25;20.65;;;;;;;-6.16;71.63;100720.88;5047082;28;20035;-53
2021/12/27 07:50:37;;;;;;;39.10;20.98;;;;;;;-6.18;71.10;100717.34;5048259;28;20439;-51
2021/12/27 07:53:04;;;;;;;51.53;25.33;;;;;;;-6.08;70.77;100719.59;5040270;28;20048;-51
2021/12/27 07:55:31;;;;;;;41.53;23.50;;;;;;;-6.00;70.53;100718.28;5052618;28;20043;-52
2021/12/27 07:57:58;;;;;;;43.35;23.38;;;;;;;-5.89;70.70;100719.66;5057203;28;20045;-55
2021/12/27 08:00:23;;;;;;;43.83;22.58;;;;;;;-5.91;70.26;100708.47;5033048;28;20366;-51
2021/12/27 08:02:49;;;;;;;37.80;19.38;;;;;;;-5.81;70.46;100715.81;5040660;28;20031;-51
2021/12/27 08:05:15;;;;;;;40.17;20.83;;;;;;;-5.73;69.96;100718.75;5043847;28;20037;-54
2021/12/27 08:07:42;;;;;;;43.25;21.00;;;;;;;-5.67;69.87;100721.59;5043958;28;20552;-51
2021/12/27 08:10:10;;;;;;;45.80;21.67;;;;;;;-5.60;69.85;100720.22;5051697;28;20029;-52
2021/12/27 08:12:36;;;;;;;45.85;23.92;;;;;;;-5.50;69.50;100719.88;5054849;28;20166;-52
2021/12/27 08:15:04;;;;;;;53.08;27.48;;;;;;;-5.46;69.44;100708.97;5051422;28;20433;-54
2021/12/27 08:17:29;;;;;;;54.20;28.83;;;;;;;-5.37;69.43;100711.06;5052680;28;20037;-55
2021/12/27 08:19:55;;;;;;;71.50;36.72;;;;;;;-5.27;69.08;100711.56;5054080;28;20098;-53
2021/12/27 08:22:20;;;;;;;66.35;34.17;;;;;;;-5.26;68.71;100713.34;5052450;28;20520;-52
2021/12/27 08:24:45;;;;;;;71.05;35.03;;;;;;;-5.20;68.55;100707.63;5054758;28;20167;-53
2021/12/27 08:27:11;;;;;;;67.47;35.58;;;;;;;-5.17;68.46;100712.00;5055620;28;20388;-52
2021/12/27 08:29:36;;;;;;;84.82;43.70;;;;;;;-5.12;68.24;100696.03;5052757;28;20107;-50
2021/12/27 08:32:03;;;;;;;67.90;33.92;;;;;;;-5.07;68.04;100698.81;5055524;28;20068;-54
2021/12/27 08:34:29;;;;;;;58.72;30.27;;;;;;;-4.93;67.91;100704.56;5039889;28;20037;-51
2021/12/27 08:36:55;;;;;;;59.38;29.38;;;;;;;-4.86;67.43;100707.50;5038770;28;20090;-54
2021/12/27 08:39:20;;;;;;;60.22;31.60;;;;;;;-4.77;67.11;100710.47;5050573;28;20397;-52
2021/12/27 08:41:46;;;;;;;63.25;31.88;;;;;;;-4.69;66.71;100703.13;5044792;28;20082;-52
2021/12/27 08:44:11;;;;;;;62.85;33.65;;;;;;;-4.60;66.43;100705.22;5037478;28;20105;-53
2021/12/27 08:46:37;;;;;;;67.32;34.65;;;;;;;-4.57;66.45;100703.66;5052212;28;20033;-51
2021/12/27 08:49:03;;;;;;;68.88;35.15;;;;;;;-4.48;65.99;100704.06;5043432;28;20040;-51
2021/12/27 08:51:30;;;;;;;52.45;26.75;;;;;;;-4.39;65.99;100712.97;5035738;28;20125;-51
2021/12/27 08:53:55;;;;;;;64.75;33.40;;;;;;;-4.32;65.73;100707.28;5034551;28;20073;-52
2021/12/27 08:56:21;;;;;;;50.90;27.48;;;;;;;-4.37;65.37;100708.78;5038252;28;20114;-54
2021/12/27 08:58:47;;;;;;;51.75;27.52;;;;;;;-4.29;65.35;100710.00;5050411;28;20094;-51
2021/12/27 09:01:12;;;;;;;60.10;30.98;;;;;;;-4.25;65.02;100717.88;5055460;28;20456;-51
2021/12/27 09:03:38;;;;;;;60.08;30.40;;;;;;;-4.26;64.83;100716.13;5051070;28;20134;-53
2021/12/27 09:06:03;;;;;;;54.45;27.02;;;;;;;-4.24;64.70;100714.50;5043959;28;20037;-53
2021/12/27 09:08:29;;;;;;;51.95;25.27;;;;;;;-4.26;64.81;100716.13;5041015;28;20044;-50
2021/12/27 09:10:57;;;;;;;58.05;28.23;;;;;;;-4.15;64.81;100723.41;5047217;28;20059;-51
2021/12/27 09:13:28;;;;;;;53.58;27.30;;;;;;;-4.23;63.92;100713.72;5044814;28;20037;-50
2021/12/27 09:15:54;;;;;;;49.83;25.85;;;;;;;-4.15;64.22;100718.28;5040018;28;20046;-50
2021/12/27 09:18:19;;;;;;;52.08;26.27;;;;;;;-4.13;64.21;100719.22;5042732;28;20029;-53
2021/12/27 09:20:45;;;;;;;54.47;28.45;;;;;;;-4.03;64.19;100713.66;5042870;28;20497;-53
2021/12/27 09:23:10;;;;;;;50.33;26.05;;;;;;;-3.95;63.77;100714.84;5033253;28;20065;-55
2021/12/27 09:25:36;;;;;;;48.10;23.67;;;;;;;-3.90;63.31;100720.22;5039868;28;20037;-55
2021/12/27 09:28:01;;;;;;;45.53;24.63;;;;;;;-3.86;63.20;100712.69;5038449;28;20048;-56
2021/12/27 09:30:27;;;;;;;47.55;25.85;;;;;;;-3.81;63.00;100711.19;5047315;28;20488;-57
2021/12/27 09:32:53;;;;;;;48.00;25.77;;;;;;;-3.80;62.39;100707.78;5036393;28;20033;-58
2021/12/27 09:35:19;;;;;;;45.80;25.13;;;;;;;-3.73;62.70;100708.94;5041885;28;20043;-55
2021/12/27 09:37:45;;;;;;;52.47;24.30;;;;;;;-3.69;62.70;100705.69;5046108;28;20108;-55
2021/12/27 09:40:11;;;;;;;42.65;22.58;;;;;;;-3.63;62.58;100705.03;5041673;28;20040;-55
2021/12/27 09:42:37;;;;;;;46.70;26.70;;;;;;;-3.59;62.46;100701.78;5040275;28;20099;-54
2021/12/27 09:45:04;;;;;;;45.88;25.90;;;;;;;-3.54;62.16;100708.00;5048325;28;20128;-56
2021/12/27 09:47:31;;;;;;;50.92;26.10;;;;;;;-3.50;62.16;100707.31;5049620;28;20064;-57
2021/12/27 09:49:57;;;;;;;51.28;26.88;;;;;;;-3.48;62.02;100695.38;5041649;28;20037;-56
2021/12/27 09:52:22;;;;;;;51.50;26.73;;;;;;;-3.46;61.93;100698.91;5040046;28;20107;-56
2021/12/27 09:54:48;;;;;;;54.45;27.85;;;;;;;-3.43;62.10;100701.59;5042185;28;20124;-58
2021/12/27 09:57:14;;;;;;;63.05;33.10;;;;;;;-3.43;61.89;100690.41;5049464;28;20484;-58
2021/12/27 09:59:40;;;;;;;60.08;31.40;;;;;;;-3.39;61.93;100692.28;5053602;28;20029;-54
2021/12/27 10:02:05;;;;;;;65.95;33.17;;;;;;;-3.38;62.01;100691.50;5036192;28;20033;-59
2021/12/27 10:04:32;;;;;;;54.22;28.63;;;;;;;-3.38;61.88;100686.38;5036224;28;20053;-57
2021/12/27 10:06:58;;;;;;;49.90;27.60;;;;;;;-3.38;61.69;100691.50;5050552;28;20468;-55
2021/12/27 10:09:23;;;;;;;50.85;26.27;;;;;;;-3.32;61.78;100692.59;5052588;28;20036;-56
2021/12/27 10:11:49;;;;;;;50.88;25.75;;;;;;;-3.25;61.73;100686.88;5041020;28;20025;-55
2021/12/27 10:14:24;;;;;;;45.60;23.95;;;;;;;-3.25;60.85;100679.19;5039875;28;20083;-55
2021/12/27 10:17:07;;;;;;;50.67;25.48;;;;;;;-3.27;61.13;100675.69;5039916;28;20044;-58
2021/12/27 10:19:33;;;;;;;48.50;23.67;;;;;;;-3.25;61.95;100668.03;5048944;28;20028;-55
2021/12/27 10:21:59;;;;;;;54.47;27.30;;;;;;;-3.30;61.90;100672.13;5046594;28;20034;-56
2021/12/27 10:24:27;;;;;;;59.33;30.08;;;;;;;-3.31;61.82;100666.09;5045871;28;20499;-55
2021/12/27 10:26:54;;;;;;;53.20;27.73;;;;;;;-3.39;62.08;100659.78;5053570;28;20041;-56
2021/12/27 10:29:32;;;;;;;53.22;27.45;;;;;;;-3.41;61.78;100671.69;5054066;28;20118;-56
2021/12/27 10:32:10;;;;;;;45.22;24.02;;;;;;;-3.33;62.07;100675.44;5053803;28;20053;-52
2021/12/27 10:34:52;;;;;;;46.05;23.70;;;;;;;-3.24;62.04;100669.78;5053911;28;20041;-56
2021/12/27 10:37:28;;;;;;;45.93;24.83;;;;;;;-3.23;62.05;100663.84;5053746;28;20112;-54
2021/12/27 10:40:02;;;;;;;42.58;22.80;;;;;;;-3.23;62.45;100662.13;5053755;28;20025;-54
2021/12/27 10:42:39;;;;;;;39.80;22.45;;;;;;;-3.18;61.93;100658.88;5041335;28;20151;-55
2021/12/27 10:45:13;;;;;;;44.75;22.40;;;;;;;-3.19;62.00;100651.94;5033780;28;20108;-55
2021/12/27 10:47:39;;;;;;;44.72;22.75;;;;;;;-3.07;61.94;100658.47;5033889;28;20116;-55
2021/12/27 10:50:16;;;;;;;38.55;21.77;;;;;;;-3.03;61.87;100659.44;5033792;28;20068;-53
2021/12/27 10:52:53;;;;;;;55.50;28.15;;;;;;;-3.00;61.67;100651.81;5034831;28;20052;-54
2021/12/27 10:55:23;;;;;;;47.85;24.05;;;;;;;-2.95;62.00;100659.69;5033615;28;20112;-54
2021/12/27 10:57:50;;;;;;;43.03;22.40;;;;;;;-2.94;61.97;100654.63;5033501;28;20469;-53
2021/12/27 11:00:25;;;;;;;49.25;25.13;;;;;;;-2.97;61.71;100649.38;5033210;28;20359;-56
2021/12/27 11:02:51;;;;;;;44.17;24.42;;;;;;;-2.94;61.82;100646.94;5046906;28;20037;-53
2021/12/27 11:05:23;;;;;;;121.68;44.70;;;;;;;-2.94;61.69;100649.50;5049432;28;20044;-56
2021/12/27 11:07:51;;;;;;;121.53;45.83;;;;;;;-2.97;62.25;100652.81;5053046;28;20029;-54
2021/12/27 11:10:17;;;;;;;131.45;49.38;;;;;;;-2.99;62.63;100651.03;5051432;28;20511;-54
2021/12/27 11:12:42;;;;;;;68.90;29.52;;;;;;;-2.95;62.59;100652.91;5041694;28;20041;-52
2021/12/27 11:15:12;;;;;;;77.10;33.33;;;;;;;-2.99;62.28;100651.03;5039006;28;20159;-57
2021/12/27 11:17:39;;;;;;;61.20;26.63;;;;;;;-2.94;62.35;100644.34;5043583;28;20041;-54
2021/12/27 11:20:08;;;;;;;44.75;22.23;;;;;;;-2.93;62.29;100647.78;5037241;28;20049;-54